createdAt,value
2017-08-17T00:00:39.883Z,69.57
2017-08-17T00:03:07.271Z,69.49
2017-08-17T00:05:34.676Z,69.42
2017-08-17T00:08:02.278Z,69.09
2017-08-17T00:10:29.685Z,69.58
2017-08-17T00:12:57.073Z,69.86
2017-08-17T00:15:24.463Z,69.50
2017-08-17T00:17:52.082Z,69.98
2017-08-17T00:20:19.675Z,69.41
2017-08-17T00:22:47.278Z,68.04
2017-08-17T00:25:14.678Z,67.49
2017-08-17T00:27:42.062Z,67.19
2017-08-17T00:30:09.459Z,67.30
2017-08-17T00:32:36.842Z,67.35
2017-08-17T00:35:04.255Z,67.44
2017-08-17T00:37:31.645Z,67.06
2017-08-17T00:39:59.030Z,66.93
2017-08-17T00:42:26.423Z,66.76
2017-08-17T00:44:53.821Z,67.08
2017-08-17T00:47:21.436Z,66.78
2017-08-17T00:49:48.827Z,66.76
2017-08-17T00:52:16.219Z,66.95
2017-08-17T00:54:43.606Z,67.48
2017-08-17T00:57:11.003Z,67.54
2017-08-17T00:59:38.403Z,67.38
2017-08-17T01:02:05.804Z,67.06
2017-08-17T01:04:33.196Z,67.07
2017-08-17T01:07:00.592Z,67.23
2017-08-17T01:09:27.984Z,67.40
2017-08-17T01:11:55.378Z,67.20
2017-08-17T01:14:22.771Z,67.37
2017-08-17T01:16:50.158Z,66.95
2017-08-17T01:19:17.544Z,66.78
2017-08-17T01:21:44.939Z,66.72
2017-08-17T01:24:12.336Z,66.27
2017-08-17T01:26:39.719Z,66.43
2017-08-17T01:29:07.112Z,66.62
2017-08-17T01:31:34.803Z,67.17
2017-08-17T01:34:02.212Z,67.33
2017-08-17T01:36:29.649Z,67.26
2017-08-17T01:38:57.021Z,67.62
2017-08-17T01:41:24.439Z,68.17
2017-08-17T01:43:51.830Z,68.57
2017-08-17T01:46:19.215Z,68.75
2017-08-17T01:48:46.607Z,68.58
2017-08-17T01:51:13.993Z,68.57
2017-08-17T01:53:41.395Z,68.42
2017-08-17T01:56:08.783Z,68.64
2017-08-17T01:58:36.175Z,69.66
2017-08-17T02:01:03.571Z,69.62
2017-08-17T02:03:30.969Z,69.62
2017-08-17T02:05:58.582Z,69.65
2017-08-17T02:08:25.984Z,70.13
2017-08-17T02:10:53.371Z,70.40
2017-08-17T02:13:20.768Z,70.99
2017-08-17T02:15:48.167Z,70.97
2017-08-17T02:18:15.584Z,71.19
2017-08-17T02:20:42.975Z,70.87
2017-08-17T02:23:10.371Z,71.07
2017-08-17T02:25:37.769Z,71.02
2017-08-17T02:28:05.155Z,70.87
2017-08-17T02:30:32.559Z,70.79
2017-08-17T02:32:59.951Z,70.56
2017-08-17T02:35:27.358Z,70.50
2017-08-17T02:37:54.752Z,70.54
2017-08-17T02:40:22.167Z,70.25
2017-08-17T02:42:49.548Z,70.22
2017-08-17T02:45:16.939Z,70.31
2017-08-17T02:47:44.327Z,70.32
2017-08-17T02:50:11.733Z,69.98
2017-08-17T02:52:39.130Z,69.72
2017-08-17T02:55:06.531Z,69.17
2017-08-17T02:57:33.922Z,68.99
2017-08-17T03:00:01.319Z,68.50
2017-08-17T03:02:28.710Z,68.73
2017-08-17T03:04:56.102Z,68.58
2017-08-17T03:07:23.497Z,68.75
2017-08-17T03:09:50.876Z,69.21
2017-08-17T03:12:18.275Z,70.30
2017-08-17T03:14:45.667Z,70.95
2017-08-17T03:17:13.943Z,71.75
2017-08-17T03:19:41.331Z,71.70
2017-08-17T03:22:08.750Z,71.99
2017-08-17T03:24:36.127Z,71.90
2017-08-17T03:27:03.514Z,71.50
2017-08-17T03:29:30.907Z,72.44
2017-08-17T03:31:58.307Z,72.23
2017-08-17T03:34:25.720Z,71.85
2017-08-17T03:36:53.147Z,71.38
2017-08-17T03:39:20.535Z,71.12
2017-08-17T03:41:47.936Z,71.51
2017-08-17T03:44:15.330Z,71.34
2017-08-17T03:46:42.751Z,71.71
2017-08-17T03:49:10.155Z,71.71
2017-08-17T03:51:37.547Z,71.82
2017-08-17T03:54:04.943Z,72.31
2017-08-17T03:56:32.343Z,72.38
2017-08-17T03:58:59.739Z,72.63
2017-08-17T04:01:27.144Z,72.58
2017-08-17T04:03:54.554Z,73.33
2017-08-17T04:06:21.962Z,73.39
2017-08-17T04:08:49.379Z,73.40
2017-08-17T04:11:16.779Z,73.56
2017-08-17T04:13:44.178Z,73.15
2017-08-17T04:16:11.593Z,72.71
2017-08-17T04:18:38.990Z,72.32
2017-08-17T04:21:06.603Z,72.10
2017-08-17T04:23:33.999Z,71.80
2017-08-17T04:26:01.395Z,71.57
2017-08-17T04:28:28.795Z,71.42
2017-08-17T04:30:56.212Z,71.24
2017-08-17T04:33:23.607Z,70.68
2017-08-17T04:35:51.012Z,71.16
2017-08-17T04:38:18.414Z,71.30
2017-08-17T04:40:45.814Z,71.75
2017-08-17T04:43:13.223Z,71.48
2017-08-17T04:45:40.623Z,71.42
2017-08-17T04:48:08.031Z,72.03
2017-08-17T04:50:35.427Z,72.52
2017-08-17T04:53:02.830Z,72.30
2017-08-17T04:55:30.228Z,72.72
2017-08-17T04:58:15.166Z,72.69
2017-08-17T05:00:42.555Z,73.26
2017-08-17T05:03:09.971Z,73.08
2017-08-17T05:05:37.372Z,72.75
2017-08-17T05:08:04.779Z,72.83
2017-08-17T05:10:32.196Z,72.70
2017-08-17T05:12:59.582Z,73.26
2017-08-17T05:15:26.983Z,73.06
2017-08-17T05:17:54.371Z,73.82
2017-08-17T05:20:21.770Z,74.07
2017-08-17T05:22:49.451Z,74.09
2017-08-17T05:25:16.855Z,74.73
2017-08-17T05:27:44.248Z,74.62
2017-08-17T05:30:11.643Z,74.60
2017-08-17T05:32:39.039Z,74.81
2017-08-17T05:35:06.438Z,75.00
2017-08-17T05:37:33.839Z,75.08
2017-08-17T05:40:01.243Z,74.86
2017-08-17T05:42:28.650Z,74.91
2017-08-17T05:44:56.047Z,74.72
2017-08-17T05:47:23.441Z,74.58
2017-08-17T05:49:50.852Z,74.79
2017-08-17T05:52:18.239Z,74.87
2017-08-17T05:54:45.884Z,73.63
2017-08-17T05:57:13.278Z,74.53
2017-08-17T05:59:40.679Z,74.85
2017-08-17T06:02:08.086Z,74.83
2017-08-17T06:04:35.810Z,74.51
2017-08-17T06:07:03.222Z,74.20
2017-08-17T06:09:30.627Z,74.40
2017-08-17T06:11:58.034Z,74.53
2017-08-17T06:14:25.423Z,74.15
2017-08-17T06:16:52.841Z,73.79
2017-08-17T06:19:20.234Z,73.71
2017-08-17T06:21:47.635Z,73.16
2017-08-17T06:24:15.031Z,73.46
2017-08-17T06:26:42.444Z,74.09
2017-08-17T06:29:09.830Z,73.72
2017-08-17T06:31:37.262Z,73.57
2017-08-17T06:34:04.654Z,73.56
2017-08-17T06:36:32.062Z,73.38
2017-08-17T06:38:59.462Z,73.91
2017-08-17T06:41:26.872Z,73.36
2017-08-17T06:43:54.502Z,73.39
2017-08-17T06:46:21.915Z,72.68
2017-08-17T06:48:49.308Z,72.37
2017-08-17T06:51:16.706Z,72.31
2017-08-17T06:53:44.110Z,72.29
2017-08-17T06:56:11.515Z,72.07
2017-08-17T06:58:38.927Z,71.77
2017-08-17T07:01:06.346Z,71.46
2017-08-17T07:03:33.777Z,71.70
2017-08-17T07:06:01.162Z,71.89
2017-08-17T07:08:28.556Z,71.52
2017-08-17T07:10:55.959Z,71.34
2017-08-17T07:13:23.363Z,71.21
2017-08-17T07:15:50.767Z,71.15
2017-08-17T07:18:18.167Z,70.22
2017-08-17T07:20:45.668Z,70.50
2017-08-17T07:23:13.070Z,70.27
2017-08-17T07:25:40.466Z,69.63
2017-08-17T07:28:08.107Z,69.78
2017-08-17T07:30:35.511Z,69.93
2017-08-17T07:33:03.226Z,69.50
2017-08-17T07:35:30.648Z,69.46
2017-08-17T07:37:58.034Z,69.55
2017-08-17T07:40:25.439Z,69.35
2017-08-17T07:42:52.835Z,69.15
2017-08-17T07:45:20.236Z,69.59
2017-08-17T07:47:47.638Z,69.34
2017-08-17T07:50:15.039Z,68.95
2017-08-17T07:52:42.439Z,68.61
2017-08-17T07:55:09.838Z,68.10
2017-08-17T07:57:37.239Z,68.10
2017-08-17T08:00:04.640Z,67.82
2017-08-17T08:02:32.032Z,67.13
2017-08-17T08:04:59.435Z,66.85
2017-08-17T08:07:26.830Z,67.05
2017-08-17T08:09:54.227Z,66.96
2017-08-17T08:12:21.919Z,67.27
2017-08-17T08:14:49.339Z,67.35
2017-08-17T08:17:17.040Z,66.84
2017-08-17T08:19:44.428Z,66.38
2017-08-17T08:22:11.827Z,65.73
2017-08-17T08:24:39.235Z,65.89
2017-08-17T08:27:06.636Z,65.87
2017-08-17T08:29:34.022Z,65.41
2017-08-17T08:32:01.423Z,64.49
2017-08-17T08:34:28.811Z,64.45
2017-08-17T08:36:56.226Z,64.48
2017-08-17T08:39:23.618Z,64.76
2017-08-17T08:41:51.016Z,64.75
2017-08-17T08:44:18.413Z,63.67
2017-08-17T08:46:45.826Z,63.56
2017-08-17T08:49:13.211Z,63.12
2017-08-17T08:51:40.611Z,62.92
2017-08-17T08:54:08.016Z,63.21
2017-08-17T08:56:35.420Z,62.38
2017-08-17T08:59:02.807Z,62.67
2017-08-17T09:01:30.202Z,62.50
2017-08-17T09:03:57.607Z,61.93
2017-08-17T09:06:25.018Z,62.03
2017-08-17T09:08:52.410Z,62.45
2017-08-17T09:11:19.811Z,61.18
2017-08-17T09:13:47.209Z,61.56
2017-08-17T09:16:14.606Z,61.74
2017-08-17T09:18:42.015Z,61.44
2017-08-17T09:21:09.415Z,60.98
2017-08-17T09:23:36.811Z,61.08
2017-08-17T09:26:04.203Z,61.56
2017-08-17T09:28:31.600Z,61.41
2017-08-17T09:30:59.306Z,60.93
2017-08-17T09:33:26.702Z,60.79
2017-08-17T09:35:54.098Z,60.27
2017-08-17T09:38:21.499Z,60.54
2017-08-17T09:40:48.883Z,60.08
2017-08-17T09:43:16.296Z,59.69
2017-08-17T09:45:43.674Z,59.83
2017-08-17T09:48:11.072Z,59.96
2017-08-17T09:50:38.454Z,59.75
2017-08-17T09:53:05.866Z,59.94
2017-08-17T09:55:33.267Z,59.29
2017-08-17T09:58:00.674Z,59.57
2017-08-17T10:00:28.068Z,59.25
2017-08-17T10:02:55.459Z,58.69
2017-08-17T10:05:22.857Z,59.38
2017-08-17T10:07:50.237Z,59.16
2017-08-17T10:10:17.679Z,58.93
2017-08-17T10:12:45.068Z,59.09
2017-08-17T10:15:12.473Z,59.14
2017-08-17T10:17:39.862Z,58.03
2017-08-17T10:20:07.904Z,58.46
2017-08-17T10:22:35.282Z,58.65
2017-08-17T10:25:02.683Z,58.46
2017-08-17T10:27:30.071Z,57.88
2017-08-17T10:29:57.476Z,58.10
2017-08-17T10:32:24.934Z,57.58
2017-08-17T10:34:52.322Z,58.06
2017-08-17T10:37:19.722Z,57.25
2017-08-17T10:39:47.114Z,57.26
2017-08-17T10:42:14.511Z,57.63
2017-08-17T10:44:41.917Z,55.64
2017-08-17T10:47:09.299Z,56.63
2017-08-17T10:49:36.703Z,56.92
2017-08-17T10:52:04.094Z,55.38
2017-08-17T10:54:31.483Z,56.11
2017-08-17T10:56:58.875Z,54.49
2017-08-17T10:59:26.273Z,53.74
2017-08-17T11:01:53.675Z,53.64
2017-08-17T11:04:21.068Z,54.20
2017-08-17T11:06:48.467Z,53.91
2017-08-17T11:09:15.863Z,54.47
2017-08-17T11:11:43.270Z,54.35
2017-08-17T11:14:10.659Z,53.91
2017-08-17T11:16:38.067Z,53.05
2017-08-17T11:19:05.459Z,51.96
2017-08-17T11:21:32.847Z,52.13
2017-08-17T11:24:00.248Z,51.88
2017-08-17T11:26:27.644Z,52.04
2017-08-17T11:28:55.108Z,51.45
2017-08-17T11:31:22.495Z,51.41
2017-08-17T11:33:49.894Z,50.76
2017-08-17T11:36:17.290Z,51.78
2017-08-17T11:38:44.683Z,50.35
2017-08-17T11:41:12.098Z,50.40
2017-08-17T11:43:39.709Z,51.09
2017-08-17T11:46:07.132Z,51.49
2017-08-17T11:48:33.994Z,50.88
2017-08-17T11:51:00.819Z,50.95
2017-08-17T11:53:28.221Z,50.53
2017-08-17T11:55:55.608Z,50.70
2017-08-17T11:58:23.009Z,50.88
2017-08-17T12:00:50.387Z,50.79
2017-08-17T12:03:17.788Z,49.80
2017-08-17T12:05:45.181Z,48.91
2017-08-17T12:08:12.567Z,47.12
2017-08-17T12:10:39.963Z,48.25
2017-08-17T12:13:07.567Z,46.42
2017-08-17T12:15:41.870Z,46.72
2017-08-17T12:18:09.256Z,47.54
2017-08-17T12:20:36.637Z,47.15
2017-08-17T12:23:04.042Z,46.73
2017-08-17T12:25:31.438Z,47.24
2017-08-17T12:27:58.834Z,47.57
2017-08-17T12:30:26.227Z,46.95
2017-08-17T12:32:53.650Z,46.84
2017-08-17T12:35:21.047Z,46.61
2017-08-17T12:37:48.439Z,45.01
2017-08-17T12:40:15.913Z,45.27
2017-08-17T12:42:43.287Z,43.76
2017-08-17T12:45:10.701Z,43.60
2017-08-17T12:47:38.084Z,43.54
2017-08-17T12:50:05.479Z,44.60
2017-08-17T12:52:32.878Z,45.95
2017-08-17T12:55:00.270Z,44.98
2017-08-17T12:57:27.659Z,46.66
2017-08-17T12:59:55.098Z,46.50
2017-08-17T13:02:22.475Z,46.90
2017-08-17T13:04:49.871Z,47.90
2017-08-17T13:07:17.259Z,47.09
2017-08-17T13:09:44.650Z,46.97
2017-08-17T13:12:12.043Z,47.42
2017-08-17T13:14:39.427Z,45.67
2017-08-17T13:17:06.884Z,45.94
2017-08-17T13:19:34.258Z,47.18
2017-08-17T13:22:01.663Z,50.02
2017-08-17T13:24:29.063Z,48.67
2017-08-17T13:26:56.455Z,49.03
2017-08-17T13:29:23.838Z,48.56
2017-08-17T13:31:51.227Z,49.40
2017-08-17T13:34:18.619Z,49.25
2017-08-17T13:36:46.018Z,49.72
2017-08-17T13:39:13.407Z,50.53
2017-08-17T13:41:40.811Z,52.25
2017-08-17T13:44:08.415Z,52.41
2017-08-17T13:46:35.852Z,52.93
2017-08-17T13:49:03.236Z,52.66
2017-08-17T13:51:30.631Z,53.35
2017-08-17T13:53:58.022Z,53.55
2017-08-17T13:56:25.418Z,54.79
2017-08-17T13:58:52.846Z,54.94
2017-08-17T14:01:20.251Z,55.14
2017-08-17T14:03:47.655Z,54.53
2017-08-17T14:06:15.046Z,55.20
2017-08-17T14:08:42.439Z,55.23
2017-08-17T14:11:09.827Z,55.34
2017-08-17T14:13:37.261Z,55.69
2017-08-17T14:16:04.632Z,55.45
2017-08-17T14:18:32.036Z,55.38
2017-08-17T14:20:59.414Z,55.52
2017-08-17T14:23:26.812Z,56.98
2017-08-17T14:25:54.204Z,57.58
2017-08-17T14:28:21.599Z,58.01
2017-08-17T14:30:48.991Z,58.68
2017-08-17T14:33:16.604Z,58.56
2017-08-17T14:35:43.992Z,59.44
2017-08-17T14:38:11.396Z,60.01
2017-08-17T14:40:38.768Z,59.68
2017-08-17T14:43:06.229Z,59.98
2017-08-17T14:45:33.820Z,59.37
2017-08-17T14:48:01.424Z,58.75
2017-08-17T14:50:28.819Z,58.81
2017-08-17T14:52:56.207Z,58.31
2017-08-17T14:55:23.592Z,58.42
2017-08-17T14:57:50.977Z,58.52
2017-08-17T15:00:18.586Z,58.58
2017-08-17T15:02:45.975Z,59.02
2017-08-17T15:05:13.384Z,60.51
2017-08-17T15:07:40.779Z,60.46
2017-08-17T15:10:08.181Z,60.92
2017-08-17T15:12:35.583Z,60.98
2017-08-17T15:15:02.979Z,60.35
2017-08-17T15:17:30.589Z,60.20
2017-08-17T15:19:57.989Z,60.59
2017-08-17T15:22:25.376Z,60.97
2017-08-17T15:24:52.770Z,63.38
2017-08-17T15:27:20.166Z,64.21
2017-08-17T15:29:47.576Z,65.08
2017-08-17T15:32:15.189Z,66.33
2017-08-17T15:34:42.578Z,67.70
2017-08-17T15:37:09.967Z,68.16
2017-08-17T15:39:37.371Z,68.25
2017-08-17T15:42:04.761Z,68.56
2017-08-17T15:44:32.150Z,67.52
2017-08-17T15:47:00.299Z,66.60
2017-08-17T15:49:27.692Z,67.17
2017-08-17T15:51:55.076Z,67.28
2017-08-17T15:54:48.086Z,68.02
2017-08-17T15:57:15.481Z,68.48
2017-08-17T15:59:42.914Z,69.44
2017-08-17T16:02:10.328Z,69.24
2017-08-17T16:04:37.731Z,67.97
2017-08-17T16:07:05.123Z,68.30
2017-08-17T16:09:32.731Z,68.49
2017-08-17T16:12:00.131Z,68.17
2017-08-17T16:14:27.522Z,67.54
2017-08-17T16:16:54.919Z,66.46
2017-08-17T16:19:22.515Z,66.05
2017-08-17T16:21:49.924Z,65.95
2017-08-17T16:24:17.306Z,67.46
2017-08-17T16:26:44.923Z,67.34
2017-08-17T16:29:12.319Z,67.18
2017-08-17T16:31:39.939Z,68.21
2017-08-17T16:34:07.339Z,69.59
2017-08-17T16:36:34.739Z,70.35
2017-08-17T16:39:02.139Z,69.87
2017-08-17T16:41:29.553Z,70.21
2017-08-17T16:43:56.977Z,70.12
2017-08-17T16:46:24.403Z,70.02
2017-08-17T16:48:52.009Z,69.51
2017-08-17T16:51:19.403Z,69.36
2017-08-17T16:53:46.835Z,69.36
2017-08-17T16:56:14.247Z,69.01
2017-08-17T16:58:41.647Z,69.10
2017-08-17T17:01:09.056Z,69.31
2017-08-17T17:03:36.670Z,69.14
2017-08-17T17:06:04.067Z,68.66
2017-08-17T17:08:31.466Z,69.02
2017-08-17T17:10:58.902Z,68.65
2017-08-17T17:13:26.305Z,67.47
2017-08-17T17:15:53.691Z,67.84
2017-08-17T17:18:21.097Z,67.36
2017-08-17T17:20:48.516Z,66.80
2017-08-17T17:23:15.923Z,66.84
2017-08-17T17:25:43.310Z,66.65
2017-08-17T17:28:10.723Z,66.20
2017-08-17T17:30:38.112Z,66.13
2017-08-17T17:33:05.511Z,66.04
2017-08-17T17:35:32.927Z,65.95
2017-08-17T17:38:01.238Z,66.19
2017-08-17T17:40:28.620Z,66.20
2017-08-17T17:42:56.020Z,65.63
2017-08-17T17:45:23.435Z,65.97
2017-08-17T17:47:50.835Z,65.92
2017-08-17T17:50:18.454Z,66.05
2017-08-17T17:52:45.892Z,65.86
2017-08-17T17:55:13.269Z,66.99
2017-08-17T17:57:40.685Z,68.19
2017-08-17T18:00:08.080Z,68.41
2017-08-17T18:02:35.479Z,67.20
2017-08-17T18:05:02.868Z,67.22
2017-08-17T18:07:30.291Z,68.02
2017-08-17T18:09:57.692Z,65.80
2017-08-17T18:12:25.115Z,66.68
2017-08-17T18:14:52.497Z,66.28
2017-08-17T18:17:19.930Z,66.40
2017-08-17T18:19:47.322Z,66.02
2017-08-17T18:22:14.715Z,66.20
2017-08-17T18:24:42.143Z,65.42
2017-08-17T18:27:09.536Z,66.61
2017-08-17T18:29:36.944Z,66.88
2017-08-17T18:32:04.343Z,66.40
2017-08-17T18:34:31.731Z,66.54
2017-08-17T18:36:59.155Z,66.50
2017-08-17T18:39:26.562Z,66.32
2017-08-17T18:41:53.955Z,66.32
2017-08-17T18:44:21.351Z,66.76
2017-08-17T18:46:49.754Z,67.06
2017-08-17T18:49:17.184Z,66.90
2017-08-17T18:51:44.816Z,67.36
2017-08-17T18:54:12.221Z,67.15
2017-08-17T18:56:39.627Z,66.99
2017-08-17T18:59:07.025Z,66.26
2017-08-17T19:01:34.666Z,66.80
2017-08-17T19:04:02.069Z,66.77
2017-08-17T19:06:29.458Z,66.49
2017-08-17T19:08:56.858Z,66.88
2017-08-17T19:11:24.263Z,66.85
2017-08-17T19:13:51.666Z,66.91
2017-08-17T19:16:19.075Z,66.92
2017-08-17T19:18:46.483Z,67.17
2017-08-17T19:21:13.888Z,66.98
2017-08-17T19:23:41.283Z,66.78
2017-08-17T19:26:08.691Z,66.77
2017-08-17T19:28:36.118Z,66.93
2017-08-17T19:31:03.519Z,65.93
2017-08-17T19:33:30.915Z,66.69
2017-08-17T19:35:58.408Z,67.20
2017-08-17T19:38:25.803Z,67.62
2017-08-17T19:40:53.251Z,66.82
2017-08-17T19:43:20.655Z,66.21
2017-08-17T19:45:48.060Z,66.83
2017-08-17T19:48:15.476Z,67.18
2017-08-17T19:50:43.095Z,66.52
2017-08-17T19:53:10.490Z,67.69
2017-08-17T19:55:37.890Z,67.26
2017-08-17T19:58:05.294Z,66.64
2017-08-17T20:00:33.394Z,67.13
2017-08-17T20:03:00.807Z,67.01
2017-08-17T20:05:28.271Z,67.13
2017-08-17T20:07:55.679Z,67.85
2017-08-17T20:10:23.083Z,67.53
2017-08-17T20:12:50.488Z,67.45
2017-08-17T20:15:17.891Z,67.52
2017-08-17T20:17:45.510Z,67.31
2017-08-17T20:20:12.977Z,68.45
2017-08-17T20:22:40.381Z,68.22
2017-08-17T20:25:07.781Z,68.53
2017-08-17T20:27:35.195Z,67.32
2017-08-17T20:30:02.652Z,68.02
2017-08-17T20:32:30.259Z,68.13
2017-08-17T20:34:57.667Z,68.27
2017-08-17T20:37:25.067Z,67.93
2017-08-17T20:39:52.477Z,68.39
2017-08-17T20:42:19.927Z,69.95
2017-08-17T20:44:47.346Z,69.37
2017-08-17T20:47:14.743Z,68.53
2017-08-17T20:49:42.367Z,68.40
2017-08-17T20:52:09.759Z,68.28
2017-08-17T20:54:37.148Z,67.03
2017-08-17T20:57:04.556Z,67.13
2017-08-17T20:59:31.955Z,67.95
2017-08-17T21:01:59.583Z,68.09
2017-08-17T21:04:26.967Z,68.37
2017-08-17T21:06:54.391Z,67.95
2017-08-17T21:09:21.787Z,68.36
2017-08-17T21:11:49.200Z,68.13
2017-08-17T21:14:16.596Z,67.52
2017-08-17T21:16:44.012Z,68.91
2017-08-17T21:19:11.419Z,68.40
2017-08-17T21:21:38.832Z,68.91
2017-08-17T21:24:06.236Z,70.67
2017-08-17T21:26:33.655Z,70.29
2017-08-17T21:29:01.038Z,70.96
2017-08-17T21:31:28.446Z,71.76
2017-08-17T21:33:55.852Z,71.62
2017-08-17T21:36:23.251Z,71.62
2017-08-17T21:38:50.707Z,71.09
2017-08-17T21:41:18.111Z,72.20
2017-08-17T21:43:45.732Z,71.37
2017-08-17T21:46:13.346Z,72.40
2017-08-17T21:48:40.772Z,71.24
2017-08-17T21:51:08.152Z,70.92
2017-08-17T21:53:35.555Z,70.37
2017-08-17T21:56:02.971Z,70.57
2017-08-17T21:58:30.379Z,69.84
2017-08-17T22:00:57.778Z,69.99
2017-08-17T22:03:25.170Z,69.66
2017-08-17T22:05:52.574Z,69.66
2017-08-17T22:08:19.975Z,69.01
2017-08-17T22:10:47.377Z,68.93
2017-08-17T22:13:14.772Z,70.53
2017-08-17T22:15:42.187Z,69.76
2017-08-17T22:18:09.600Z,69.39
2017-08-17T22:20:37.004Z,69.36
2017-08-17T22:23:04.400Z,69.99
2017-08-17T22:25:31.804Z,69.48
2017-08-17T22:27:59.206Z,70.61
2017-08-17T22:30:26.615Z,70.01
2017-08-17T22:32:54.002Z,69.54
2017-08-17T22:35:21.403Z,69.50
2017-08-17T22:37:48.826Z,70.65
2017-08-17T22:40:16.235Z,70.51
2017-08-17T22:42:43.847Z,71.22
2017-08-17T22:45:11.248Z,70.71
2017-08-17T22:47:38.653Z,70.28
2017-08-17T22:50:06.047Z,69.83
2017-08-17T22:52:33.461Z,69.76
2017-08-17T22:55:00.846Z,69.42
2017-08-17T22:57:28.270Z,69.35
2017-08-17T22:59:55.669Z,70.00
2017-08-17T23:02:23.071Z,69.23
2017-08-17T23:04:50.479Z,69.65
2017-08-17T23:07:17.882Z,69.60
2017-08-17T23:09:45.279Z,70.00
2017-08-17T23:12:12.691Z,70.71
2017-08-17T23:14:40.087Z,68.92
2017-08-17T23:17:07.508Z,68.70
2017-08-17T23:19:35.109Z,70.11
2017-08-17T23:22:02.540Z,69.74
2017-08-17T23:24:29.931Z,68.75
2017-08-17T23:26:57.337Z,69.50
2017-08-17T23:29:24.743Z,70.41
2017-08-17T23:31:52.151Z,70.43
2017-08-17T23:34:19.551Z,70.98
2017-08-17T23:36:47.162Z,70.26
2017-08-17T23:39:14.563Z,69.79
2017-08-17T23:41:41.961Z,69.87
2017-08-17T23:44:09.368Z,69.94
2017-08-17T23:46:36.774Z,69.07
2017-08-17T23:49:04.172Z,68.65
2017-08-17T23:51:31.585Z,69.07
2017-08-17T23:53:58.983Z,68.96
2017-08-17T23:56:26.601Z,69.22
2017-08-17T23:58:54.003Z,69.83
